Airfield :
LOGIN :

Register | Disclaimer

   EN    FR    IT 

 










Legend :    VFR   Marginal VFR   IFR   Intensive IFR   Very Intensive IFR
Visi :
Ceiling :
>= 8 km
>= 3000ft
5 to 8 km
1000 to 3000 ft
1500m to 5 km
500 to 1000 ft
800 to 1500m
200 to 500 ft
< 800m
< 200 ft
Symbols :   Thunderstorms  Fog  Heavy snow  Heavy precipitations  Wind > 20 kt
SIGMETs :     Misc.  Thunderstorms  Icing  Turbulence  Mountain Waves  Volcanic Ashes






- Airport Elevation : 299 ft
- IATA code : EDM


LFRI - La Roche Sur Yon - Les Ajoncs

CURRENT METAR :
  • 190800Z AUTO 30007KT 270V330 CAVOK 13/12 Q1018 TEMPO 2500 SHRA BKN005 SCT014TCU

EXPIRED METARs :
  • 190730Z AUTO 33007KT 9999 -DZ FEW010 OVC052 13/12 Q1017 TEMPO 2500 SHRA BKN005 SCT014TCU
  • 190700Z AUTO 32011KT 3200 -RA BR FEW006 BKN020 BKN027 13/12 Q1017 TEMPO 2500 SHRA BKN005 SCT014TCU
  • 190630Z AUTO 31013KT 2800 RA BR FEW008 SCT025 BKN030 13/12 Q1016 BECMG 9999 NSW
  • 190600Z AUTO 30015KT 270V330 9999 -RADZ BKN018 OVC023 14/12 Q1016 TEMPO 4000 SHRA BKN005 SCT014TCU
  • 190530Z AUTO 30019G30KT 250V320 9999 -DZ BKN009/// BKN013/// OVC020/// ///TCU 15/13 Q1015 TEMPO 4000 SHRA BECMG 30009KT BKN045

TAF AMD TAF LFRI
Valid from the 19 at 06:00 until the 20 at 06:00 UTC


190640Z 1906/2006 30009KT 9999 BKN045
TEMPO 1906/1909 2500 SHRA BKN005 SCT014TCU
TEMPO 1912/1920 4000 SHRA BKN020 SCT025CB



MET'MAP, your aeronautical weather chart ! - Copyright ORBIFLY December 2007 - Disclaimer

ORBIFLY MET'MAP TEAM :

Programming & Development : Alexandra Zaïnal
Concept & original design : Baudouin d'Aumeries
Assistance for programming : Marc-Olivier Méhu
Technical & hardware support : Manuel Goepfert

Contact : metmap@orbifly.com




SOURCES & CREDITS :

   NOAA